Terminal Aerodrome Forecast
Issued by NWS

Home | Current Version | Previous Version | Text Only | Print | Product List | Glossary On
Versions: 1 2 3 4 5 6 7 8 9 10 11 12 13 14 15
000
FTUS42 KMLB 100524
TAFSFB
TAF
KSFB 100524Z 1006/1106 35007KT P6SM SCT150 BKN250
     FM101500 04011G17KT P6SM SCT040 SCT070
     FM110000 03011KT P6SM SCT050=

USA.gov is the U.S. government's official web portal to all federal, state and local government web resources and services.